📊 John's Weather Station

Last reading: 2024-03-03 18:01:52

TEMPERATURE

--

Temperature 20 readings
Min Max Average
21.86 °C 25.02 °C 22.84 °C

HUMIDITY

--

Humidity 20 readings
Min Max Average
57.29 % 62.48 % 60.86 %

View Latest 20 Readings

ID Sensor Location Temp Humid Bar Timestamp
4413 BME280 Danniverke 25.02 57.29 985.55 2024-03-03 18:01:52
4412 BME280 Danniverke 24.95 62.04 985.52 2024-03-03 17:51:46
4411 BME280 Danniverke 24.12 58.57 985.41 2024-03-03 17:41:40
4410 BME280 Danniverke 23.75 59.25 985.34 2024-03-03 17:31:33
4409 BME280 Danniverke 23.31 60.91 985.48 2024-03-03 17:21:27
4408 BME280 Danniverke 21.86 61.78 999.72 2024-02-21 00:26:42
4407 BME280 Danniverke 22.05 61.54 999.77 2024-02-21 00:16:36
4406 BME280 Danniverke 22.11 61.19 999.88 2024-02-21 00:06:29
4405 BME280 Danniverke 22.13 61.22 999.92 2024-02-20 23:56:23
4404 BME280 Danniverke 22.17 61.18 999.97 2024-02-20 23:46:17
4403 BME280 Danniverke 22.31 60.81 1000.01 2024-02-20 23:36:11
4402 BME280 Danniverke 22.36 60.83 999.93 2024-02-20 23:26:05
4401 BME280 Danniverke 22.39 60.97 999.78 2024-02-20 23:15:59
4400 BME280 Danniverke 22.40 61.44 999.82 2024-02-20 23:05:53
4399 BME280 Danniverke 22.46 61.13 999.91 2024-02-20 22:55:47
4398 BME280 Danniverke 22.56 60.80 999.80 2024-02-20 22:45:40
4397 BME280 Danniverke 22.70 62.48 999.86 2024-02-20 22:35:34
4396 BME280 Danniverke 22.67 61.44 999.94 2024-02-20 22:25:29
4395 BME280 Danniverke 22.73 61.15 999.93 2024-02-20 22:15:22
4394 BME280 Danniverke 22.83 61.22 999.86 2024-02-20 22:05:16